KSBY/SBY METAR and TAF weather

Enter ICAO airport designator
Station Type Date Time Source
KSBY METAR 2022/07/01 00:54 UTC NOAA

KSBY 010054Z 15004KT 10SM CLR 24/21 A3017 RMK AO2 SLP217 T02390206


Station Type Date Time Source
KSBY Decoded METAR 2022/07/01 00:54 UTC NOAA

SALISBURY-WICOMICO CTY REG, MD, United States (KSBY) 38-20N 075-30W 19M
Jun 30, 2022 - 08:54 PM EDT / 2022.07.01 0054 UTC
Wind: from the SSE (150 degrees) at 5 MPH (4 KT):0
Visibility: 10 mile(s):0
Sky conditions: clear
Temperature: 75.0 F (23.9 C)
Dew Point: 69.1 F (20.6 C)
Relative Humidity: 81%
Pressure (altimeter): 30.17 in. Hg (1021 hPa)
ob: KSBY 010054Z 15004KT 10SM CLR 24/21 A3017 RMK AO2 SLP217 T02390206
cycle: 1

Station Type Date Time Source
KSBY TAF 2022/06/30 19:59 UTC NOAA

TAF
AMD KSBY 301859Z 3019/0118 07006KT P6SM BKN040
TEMPO 3019/3020 04011G21KT 2SM -RA SCT018 BKN035 OVC060
FM302100 22007KT P6SM SCT040
FM302300 18007KT P6SM FEW100
FM011200 21007KT P6SM FEW150

Example: see airport list